Time;durP1;ratioP1;P1;durP2;ratioP2;P2;SDS_P1;SDS_P2;PMS_P1;PMS_P2;Temp;Humidity;BMP_temperature;BMP_pressure;BME280_temperature;BME280_humidity;BME280_pressure;Samples;Min_cycle;Max_cycle;Signal;HPM_P1;HPM_P2
2021/05/18 00:00:24;;;;;;;;;;;;;;;19.38;66.96;99871.44;5026963;28;1582;-62
2021/05/18 00:02:50;;;;;;;;;;;;;;;19.38;66.75;99868.78;5025513;28;1434;-61
2021/05/18 00:05:17;;;;;;;;;;;;;;;19.36;66.96;99873.44;5032605;28;1400;-61
2021/05/18 00:07:51;;;;;;;;;;;;;;;19.41;65.97;99860.38;5034091;28;1422;-64
2021/05/18 00:13:01;;;;;;;;;;;;;;;19.38;66.83;99889.38;5034753;28;1914;-64
2021/05/18 00:15:29;;;;;;;;;;;;;;;19.36;66.10;99868.09;5026614;28;1626;-64
2021/05/18 00:17:55;;;;;;;;;;;;;;;19.39;66.04;99883.84;5029457;28;1629;-64
2021/05/18 00:20:21;;;;;;;;;;;;;;;19.38;66.56;99882.19;5026144;28;1638;-64
2021/05/18 00:22:47;;;;;;;;;;;;;;;19.37;66.37;99883.16;5028336;28;1339;-64
2021/05/18 00:25:15;;;;;;;;;;;;;;;19.38;66.69;99892.06;5032308;28;1514;-64
2021/05/18 00:27:41;;;;;;;;;;;;;;;19.36;65.92;99873.44;5024999;28;1625;-64
2021/05/18 00:30:10;;;;;;;;;;;;;;;19.36;66.52;99862.72;5028598;28;1571;-64
2021/05/18 00:32:38;;;;;;;;;;;;;;;19.34;66.31;99867.41;5029367;28;1979;-61
2021/05/18 00:35:05;;;;;;;;;;;;;;;19.34;66.43;99875.44;5033400;28;1399;-61
2021/05/18 00:37:32;;;;;;;;;;;;;;;19.35;66.76;99879.78;5034049;28;1430;-64
2021/05/18 00:39:58;;;;;;;;;;;;;;;19.36;66.10;99877.94;5032489;28;1557;-62
2021/05/18 00:42:25;;;;;;;;;;;;;;;19.35;66.07;99877.13;5026919;28;1019;-62
2021/05/18 00:44:51;;;;;;;;;;;;;;;19.35;67.24;99873.59;5030389;28;1713;-61
2021/05/18 00:47:17;;;;;;;;;;;;;;;19.33;65.94;99863.03;5025990;28;1649;-61
2021/05/18 00:49:44;;;;;;;;;;;;;;;19.34;66.30;99867.41;5033349;28;1529;-64
2021/05/18 00:52:11;;;;;;;;;;;;;;;19.35;66.50;99876.28;5027411;28;1587;-61
2021/05/18 00:54:41;;;;;;;;;;;;;;;19.33;66.13;99878.28;5027618;28;1906;-62
2021/05/18 00:59:53;;;;;;;;;;;;;;;19.32;66.89;99873.91;5029368;28;1407;-64
2021/05/18 01:02:20;;;;;;;;;;;;;;;19.34;66.27;99879.94;5033854;28;1538;-64
2021/05/18 01:04:47;;;;;;;;;;;;;;;19.34;65.81;99875.44;5034209;28;1388;-61
2021/05/18 01:07:13;;;;;;;;;;;;;;;19.32;66.05;99887.31;5025301;28;1021;-65
2021/05/18 01:09:39;;;;;;;;;;;;;;;19.33;66.39;99889.84;5033570;28;1666;-61
2021/05/18 01:12:06;;;;;;;;;;;;;;;19.32;67.09;99892.69;5026935;28;1719;-63
2021/05/18 01:14:32;;;;;;;;;;;;;;;19.32;66.15;99879.28;5025904;28;1910;-61
2021/05/18 01:16:58;;;;;;;;;;;;;;;19.32;66.36;99887.31;5031413;28;1343;-64
2021/05/18 01:19:25;;;;;;;;;;;;;;;19.34;66.03;99879.94;5027996;28;1348;-62
2021/05/18 01:21:54;;;;;;;;;;;;;;;19.30;66.06;99895.53;5031609;28;1714;-61
2021/05/18 01:24:20;;;;;;;;;;;;;;;19.28;66.21;99893.00;5017722;28;2496;-61
2021/05/18 01:26:46;;;;;;;;;;;;;;;19.28;66.50;99889.50;5026226;28;1586;-61
2021/05/18 01:29:13;;;;;;;;;;;;;;;19.30;65.79;99906.25;5025983;28;1311;-61
2021/05/18 01:31:40;;;;;;;;;;;;;;;19.29;65.40;99893.84;5028249;28;1702;-61
2021/05/18 01:34:06;;;;;;;;;;;;;;;19.30;65.69;99890.19;5026999;28;1965;-64
2021/05/18 01:36:33;;;;;;;;;;;;;;;19.32;65.69;99906.94;5024936;28;1523;-64
2021/05/18 01:39:08;;;;;;;;;;;;;;;19.32;66.33;99920.34;5035825;28;1574;-62
2021/05/18 01:44:18;;;;;;;;;;;;;;;19.30;65.55;99930.38;5032356;28;1600;-61
2021/05/18 01:46:46;;;;;;;;;;;;;;;19.27;65.36;99941.41;5023222;28;1336;-61
2021/05/18 01:49:16;;;;;;;;;;;;;;;19.28;65.50;99924.34;5029799;28;1300;-62
2021/05/18 01:51:43;;;;;;;;;;;;;;;19.29;66.80;99931.38;5028043;28;1592;-64
2021/05/18 01:54:11;;;;;;;;;;;;;;;19.31;66.65;99920.50;5025199;28;1906;-61
2021/05/18 01:56:48;;;;;;;;;;;;;;;19.28;65.88;99919.81;5026189;28;1118;-64
2021/05/18 01:59:17;;;;;;;;;;;;;;;19.30;65.49;99934.88;5028646;28;1374;-61
2021/05/18 02:01:44;;;;;;;;;;;;;;;19.29;65.76;99907.25;5031187;28;1617;-61
2021/05/18 02:04:20;;;;;;;;;;;;;;;19.27;66.01;99926.16;5028675;28;1506;-65
2021/05/18 02:06:46;;;;;;;;;;;;;;;19.28;65.71;99929.72;5024991;28;1617;-64
2021/05/18 02:09:13;;;;;;;;;;;;;;;19.25;65.54;99927.31;5023695;28;1571;-65
2021/05/18 02:11:39;;;;;;;;;;;;;;;19.28;65.55;99940.44;5025308;28;1446;-64
2021/05/18 02:14:08;;;;;;;;;;;;;;;19.26;65.58;99947.78;5028576;28;1906;-62
2021/05/18 02:16:38;;;;;;;;;;;;;;;19.26;65.37;99953.97;5032106;28;1815;-64
2021/05/18 02:19:15;;;;;;;;;;;;;;;19.27;65.16;99962.84;5032785;28;1768;-65
2021/05/18 02:21:59;;;;;;;;;;;;;;;19.25;64.89;99962.16;5025865;28;1737;-65
2021/05/18 02:24:40;;;;;;;;;;;;;;;19.23;65.03;99958.81;5031758;28;1510;-61
2021/05/18 02:27:06;;;;;;;;;;;;;;;19.26;65.79;99953.16;5032193;28;1581;-62
2021/05/18 02:29:32;;;;;;;;;;;;;;;19.25;65.15;99967.53;5025018;28;1387;-65
2021/05/18 02:31:59;;;;;;;;;;;;;;;19.24;65.28;99963.19;5026016;28;1103;-65
2021/05/18 02:34:25;;;;;;;;;;;;;;;19.21;64.69;99950.09;5031227;28;2056;-65
2021/05/18 02:36:51;;;;;;;;;;;;;;;19.21;65.57;99968.84;5027857;28;1466;-65
2021/05/18 02:39:17;;;;;;;;;;;;;;;19.20;64.44;99970.69;5016094;28;1693;-64
2021/05/18 02:41:44;;;;;;;;;;;;;;;19.21;63.86;99983.06;5029405;28;1431;-61
2021/05/18 02:44:15;;;;;;;;;;;;;;;19.21;64.57;99971.53;5029046;28;1609;-61
2021/05/18 02:49:25;;;;;;;;;;;;;;;19.22;64.39;99971.38;5029471;28;1517;-62
2021/05/18 02:51:51;;;;;;;;;;;;;;;19.24;63.95;99971.22;5029827;28;1475;-65
2021/05/18 02:54:22;;;;;;;;;;;;;;;19.24;64.54;99988.16;5028238;28;1906;-61
2021/05/18 02:56:53;;;;;;;;;;;;;;;19.23;63.84;99986.44;5026841;28;1572;-61
2021/05/18 02:59:19;;;;;;;;;;;;;;;19.24;64.51;99990.00;5032164;28;1344;-61
2021/05/18 03:01:47;;;;;;;;;;;;;;;19.24;64.87;99990.00;5027861;28;1612;-62
2021/05/18 03:04:13;;;;;;;;;;;;;;;19.22;64.38;99987.47;5023473;28;1375;-62
2021/05/18 03:06:39;;;;;;;;;;;;;;;19.23;64.89;99990.97;5023763;28;1574;-61
2021/05/18 03:09:09;;;;;;;;;;;;;;;19.22;64.55;100002.72;5023241;28;1570;-61
2021/05/18 03:11:35;;;;;;;;;;;;;;;19.21;64.63;100003.69;5026228;28;1336;-64
2021/05/18 03:14:02;;;;;;;;;;;;;;;19.21;64.30;99992.97;5026038;28;1918;-64
2021/05/18 03:16:29;;;;;;;;;;;;;;;19.22;64.27;100016.09;5025576;28;1860;-64
2021/05/18 03:18:55;;;;;;;;;;;;;;;19.20;63.49;100008.22;5023592;28;1514;-64
2021/05/18 03:21:21;;;;;;;;;;;;;;;19.21;63.69;100019.78;5023473;28;1575;-62
2021/05/18 03:23:47;;;;;;;;;;;;;;;19.23;64.20;100015.09;5034315;28;1585;-62
2021/05/18 03:26:13;;;;;;;;;;;;;;;19.19;63.79;100019.91;5031218;28;1757;-63
2021/05/18 03:28:39;;;;;;;;;;;;;;;19.20;63.62;100002.84;5024336;28;1849;-64
2021/05/18 03:34:25;;;;;;;;;;;;;;;19.23;64.01;100007.06;5025336;28;1453;-62
2021/05/18 03:36:40;;;;;;;;;;;;;;;19.37;64.62;100009.16;5017166;28;1718;-62
2021/05/18 03:39:06;;;;;;;;;;;;;;;19.39;63.70;100007.16;5028867;28;1393;-62
2021/05/18 03:41:48;;;;;;;;;;;;;;;19.38;65.35;100021.59;5031194;28;1298;-65
2021/05/18 03:44:19;;;;;;;;;;;;;;;19.37;64.20;100027.94;5031899;28;1721;-61
2021/05/18 03:52:20;;;;;;;;;;;;;;;19.32;63.76;100032.94;5022349;28;1610;-62
2021/05/18 03:54:55;;;;;;;;;;;;;;;19.40;63.65;100026.81;5029894;28;1898;-61
2021/05/18 04:02:59;;;;;;;;;;;;;;;19.63;62.62;100022.59;5020162;28;1411;-67
2021/05/18 04:19:27;;;;;;;;;;;;;;;19.41;62.49;100036.50;4997657;28;1744;-60
2021/05/18 04:22:06;;;;;;;;;;;;;;;19.33;62.48;100042.66;5030047;28;1800;-60
2021/05/18 04:25:14;;;;;;;;;;;;;;;19.33;62.81;100060.59;5020633;28;1694;-61
2021/05/18 04:38:56;;;;;;;;;;;;;;;19.35;62.57;100037.97;5021722;28;941;-61
2021/05/18 04:42:05;;;;;;;;;;;;;;;19.58;60.46;100034.81;5024976;28;1662;-60
2021/05/18 04:52:52;;;;;;;;;;;;;;;19.83;59.75;100025.09;5025938;28;1963;-61
2021/05/18 05:00:50;;;;;;;;;;;;;;;19.79;60.60;100056.75;4990150;28;1437;-60
2021/05/18 05:08:50;;;;;;;;;;;;;;;19.83;61.99;100068.00;5034253;28;1179;-61
2021/05/18 05:14:20;;;;;;;;;;;;;;;19.83;61.04;100058.13;4975062;28;1973;-62
2021/05/18 05:16:47;;;;;;;;;;;;;;;19.84;60.60;100050.94;4975476;28;1040;-62
2021/05/18 05:19:13;;;;;;;;;;;;;;;19.89;60.90;100058.50;5002492;28;1568;-61
2021/05/18 05:21:39;;;;;;;;;;;;;;;20.00;61.88;100047.50;5026042;28;1589;-59
2021/05/18 05:24:07;;;;;;;;;;;;;;;19.95;61.51;100044.44;5026198;28;1404;-60
2021/05/18 05:26:34;;;;;;;;;;;;;;;19.79;61.34;100059.44;5024286;28;974;-59
2021/05/18 05:29:00;;;;;;;;;;;;;;;19.77;61.08;100058.75;5029543;28;1565;-60
2021/05/18 05:31:26;;;;;;;;;;;;;;;19.75;61.29;100055.38;5026364;28;1462;-60
2021/05/18 05:33:52;;;;;;;;;;;;;;;19.77;61.65;100047.19;5024823;28;1988;-59
2021/05/18 05:36:18;;;;;;;;;;;;;;;19.78;61.71;100055.09;5025342;28;1592;-60
2021/05/18 05:38:45;;;;;;;;;;;;;;;19.78;61.28;100063.13;5035702;28;1379;-60
2021/05/18 05:41:12;;;;;;;;;;;;;;;19.77;60.90;100068.66;5029338;28;1577;-60
2021/05/18 05:43:38;;;;;;;;;;;;;;;19.76;62.47;100051.72;5025160;28;1557;-59
2021/05/18 05:46:04;;;;;;;;;;;;;;;19.76;61.84;100066.97;5030267;28;1352;-60
2021/05/18 05:48:30;;;;;;;;;;;;;;;19.70;61.13;100056.84;5025876;28;1370;-60
2021/05/18 05:50:56;;;;;;;;;;;;;;;19.69;61.40;100069.41;5027952;28;1753;-60
2021/05/18 05:53:22;;;;;;;;;;;;;;;19.72;60.82;100060.25;5025698;28;1918;-60
2021/05/18 05:55:48;;;;;;;;;;;;;;;19.72;60.98;100063.75;5027544;28;1448;-59
2021/05/18 05:58:15;;;;;;;;;;;;;;;19.75;61.02;100074.16;5025471;28;1561;-60
2021/05/18 06:00:42;;;;;;;;;;;;;;;19.74;61.01;100055.56;5028173;28;1419;-60
2021/05/18 06:03:08;;;;;;;;;;;;;;;19.76;61.48;100073.19;5026988;28;1416;-60
2021/05/18 06:05:34;;;;;;;;;;;;;;;19.80;61.81;100047.72;5022306;28;1622;-60
2021/05/18 06:08:00;;;;;;;;;;;;;;;19.86;61.81;100073.91;5024241;28;1076;-59
2021/05/18 06:10:29;;;;;;;;;;;;;;;19.83;61.64;100060.81;5026907;28;1597;-61
2021/05/18 06:13:13;;;;;;;;;;;;;;;19.83;61.10;100033.97;5030345;28;1985;-60
2021/05/18 06:43:14;;;;;;;;;;;;;;;19.92;61.77;100050.97;5017982;28;830;-60
2021/05/18 06:48:25;;;;;;;;;;;;;;;19.91;61.74;100022.44;5015383;28;1344;-61
2021/05/18 06:50:51;;;;;;;;;;;;;;;19.95;62.38;100029.16;5026348;28;1788;-58
2021/05/18 06:53:17;;;;;;;;;;;;;;;20.00;63.23;100040.28;5028207;28;1955;-59
2021/05/18 06:55:44;;;;;;;;;;;;;;;19.96;61.87;100036.25;5026974;28;1526;-64
2021/05/18 06:58:12;;;;;;;;;;;;;;;19.96;62.27;100016.63;5031511;28;1717;-59
2021/05/18 07:00:38;;;;;;;;;;;;;;;20.04;61.91;100035.44;5027802;28;1579;-61
2021/05/18 07:03:06;;;;;;;;;;;;;;;20.14;62.47;100027.28;5023822;28;1619;-59
2021/05/18 07:05:37;;;;;;;;;;;;;;;20.12;61.35;100035.47;5029581;28;1775;-59
2021/05/18 07:08:22;;;;;;;;;;;;;;;20.12;61.69;100058.81;5033526;28;1620;-61
2021/05/18 07:10:49;;;;;;;;;;;;;;;20.12;62.01;100034.66;5029568;28;1537;-60
2021/05/18 07:13:15;;;;;;;;;;;;;;;20.13;61.61;100047.88;5030016;28;1965;-62
2021/05/18 07:15:42;;;;;;;;;;;;;;;20.15;61.98;100045.88;5027651;28;1486;-62
2021/05/18 07:18:09;;;;;;;;;;;;;;;20.14;61.82;100049.56;5027678;28;1494;-59
2021/05/18 07:20:36;;;;;;;;;;;;;;;20.06;61.89;100034.28;5028765;28;1376;-61
2021/05/18 07:23:07;;;;;;;;;;;;;;;20.05;61.23;100035.28;5033908;28;1518;-59
2021/05/18 07:25:33;;;;;;;;;;;;;;;20.08;61.53;100054.75;5028581;28;1706;-61
2021/05/18 07:28:00;;;;;;;;;;;;;;;20.10;61.49;100061.63;5026537;28;1634;-61
2021/05/18 07:30:27;;;;;;;;;;;;;;;20.10;61.73;100056.28;5021086;28;1196;-61
2021/05/18 07:32:53;;;;;;;;;;;;;;;20.03;61.77;100072.19;5031417;28;1977;-62
2021/05/18 07:35:19;;;;;;;;;;;;;;;20.12;62.01;100056.13;5030043;28;1565;-58
2021/05/18 07:37:46;;;;;;;;;;;;;;;20.08;61.28;100060.97;5017523;28;1161;-61
2021/05/18 07:40:13;;;;;;;;;;;;;;;20.12;61.12;100066.84;5027645;28;1438;-62
2021/05/18 07:42:39;;;;;;;;;;;;;;;20.15;62.01;100070.03;5033268;28;935;-63
2021/05/18 07:45:06;;;;;;;;;;;;;;;20.15;61.65;100075.41;5025622;28;1438;-61
2021/05/18 07:47:33;;;;;;;;;;;;;;;20.16;61.85;100078.94;5028056;28;1697;-61
2021/05/18 07:50:03;;;;;;;;;;;;;;;20.16;61.35;100092.38;5031273;28;1431;-60
2021/05/18 08:00:42;;;;;;;;;;;;;;;20.16;61.44;100090.53;5022136;28;1411;-59
2021/05/18 08:05:53;;;;;;;;;;;;;;;20.05;61.42;100104.22;5034917;28;1201;-61
2021/05/18 08:08:19;;;;;;;;;;;;;;;20.05;60.76;100093.47;5031275;28;1265;-60
2021/05/18 08:10:48;;;;;;;;;;;;;;;20.05;60.83;100093.47;5030004;28;1505;-64
2021/05/18 08:13:17;;;;;;;;;;;;;;;19.99;61.79;100092.25;5032840;28;1902;-63
2021/05/18 10:22:45;;;;;;;;;;;;;;;20.01;59.93;100114.41;5029992;28;1110;-62
2021/05/18 10:35:39;;;;;;;;;;;;;;;19.95;58.94;100111.53;5026180;28;1915;-60
2021/05/18 10:38:06;;;;;;;;;;;;;;;19.96;60.37;100126.66;5023370;28;1277;-62
2021/05/18 10:40:34;;;;;;;;;;;;;;;19.95;59.69;100122.25;5027813;28;1662;-60
2021/05/18 10:43:11;;;;;;;;;;;;;;;19.92;59.16;100104.63;5028848;28;1226;-60
2021/05/18 10:45:56;;;;;;;;;;;;;;;19.93;58.88;100118.91;5026495;28;1505;-61
2021/05/18 10:48:24;;;;;;;;;;;;;;;19.92;59.12;100109.19;5022126;28;1750;-60
2021/05/18 10:50:50;;;;;;;;;;;;;;;19.94;59.70;100112.53;5022222;28;1724;-61
2021/05/18 10:53:22;;;;;;;;;;;;;;;19.90;59.18;100112.00;5027231;28;1969;-62
2021/05/18 10:56:04;;;;;;;;;;;;;;;19.90;57.86;100103.13;5024616;28;1520;-60
2021/05/18 10:58:31;;;;;;;;;;;;;;;19.95;59.35;100106.16;5023029;28;1375;-61
2021/05/18 11:00:57;;;;;;;;;;;;;;;20.02;59.63;100112.59;5020259;28;1367;-62
2021/05/18 11:03:23;;;;;;;;;;;;;;;20.00;59.86;100091.28;5023663;28;1491;-61
2021/05/18 11:05:50;;;;;;;;;;;;;;;20.07;60.89;100096.84;5023860;28;1519;-64
2021/05/18 11:08:17;;;;;;;;;;;;;;;20.06;60.02;100090.63;5024307;28;1058;-63
2021/05/18 11:10:45;;;;;;;;;;;;;;;20.09;60.45;100102.88;5024872;28;1482;-61
2021/05/18 11:13:12;;;;;;;;;;;;;;;20.11;59.92;100103.56;5024019;28;1983;-65
2021/05/18 11:18:40;;;;;;;;;;;;;;;20.20;60.60;100107.16;5022972;28;1276;-66
2021/05/18 11:21:09;;;;;;;;;;;;;;;20.22;60.55;100089.06;5023490;28;1238;-58
2021/05/18 11:23:35;;;;;;;;;;;;;;;20.21;60.14;100090.91;5020879;28;1046;-65
2021/05/18 11:26:03;;;;;;;;;;;;;;;19.99;59.95;100116.41;5027293;28;1434;-63
2021/05/18 11:28:32;;;;;;;;;;;;;;;20.05;64.08;100112.25;5026740;28;1379;-64
2021/05/18 11:31:00;;;;;;;;;;;;;;;20.23;64.85;100107.69;5027800;28;1579;-63
2021/05/18 11:33:30;;;;;;;;;;;;;;;20.35;64.07;100110.06;5026983;28;1952;-60
2021/05/18 11:35:59;;;;;;;;;;;;;;;20.40;63.70;100087.13;5025880;28;1351;-63
2021/05/18 11:38:27;;;;;;;;;;;;;;;20.45;62.84;100100.06;5036938;28;1120;-64
2021/05/18 11:40:53;;;;;;;;;;;;;;;20.49;62.92;100124.75;5030700;28;1357;-61
2021/05/18 11:43:20;;;;;;;;;;;;;;;20.48;63.17;100115.03;5036639;28;1107;-61
2021/05/18 11:45:48;;;;;;;;;;;;;;;20.46;64.74;100140.19;5031124;28;1706;-61
2021/05/18 11:48:15;;;;;;;;;;;;;;;20.48;64.45;100121.22;5025724;28;1768;-62
2021/05/18 11:50:41;;;;;;;;;;;;;;;20.40;65.76;100118.50;5032130;28;1698;-64
2021/05/18 11:53:07;;;;;;;;;;;;;;;20.43;65.29;100110.13;5027065;28;1614;-62
2021/05/18 11:55:34;;;;;;;;;;;;;;;20.47;64.37;100114.16;5030414;28;1903;-61
2021/05/18 11:58:00;;;;;;;;;;;;;;;20.45;64.85;100119.72;5028793;28;1445;-62
2021/05/18 12:00:31;;;;;;;;;;;;;;;20.48;66.15;100099.75;5031488;28;1334;-63
2021/05/18 12:03:01;;;;;;;;;;;;;;;20.53;66.57;100112.69;5030612;28;1483;-62
2021/05/18 12:05:28;;;;;;;;;;;;;;;20.39;63.08;100111.44;5034658;28;1369;-62
2021/05/18 12:07:54;;;;;;;;;;;;;;;20.37;65.75;100113.44;5033360;28;1316;-62
2021/05/18 12:10:30;;;;;;;;;;;;;;;20.33;63.65;100106.72;5029887;28;1420;-61
2021/05/18 12:12:56;;;;;;;;;;;;;;;20.26;57.12;100123.47;5032665;28;1566;-61
2021/05/18 12:15:23;;;;;;;;;;;;;;;20.21;57.92;100115.06;5024314;28;1906;-62
2021/05/18 12:17:52;;;;;;;;;;;;;;;20.22;58.56;100121.25;5027478;28;1189;-62
2021/05/18 12:20:19;;;;;;;;;;;;;;;20.19;59.00;100111.69;5027419;28;1329;-62
2021/05/18 12:22:46;;;;;;;;;;;;;;;20.20;56.50;100124.09;5034766;28;1184;-66
2021/05/18 12:25:27;;;;;;;;;;;;;;;20.20;60.91;100105.31;5029560;28;1191;-63
2021/05/18 12:27:53;;;;;;;;;;;;;;;20.23;58.54;100107.69;5032079;28;1431;-61
2021/05/18 12:30:19;;;;;;;;;;;;;;;20.18;57.34;100114.53;5029804;28;1200;-60
2021/05/18 12:32:47;;;;;;;;;;;;;;;20.16;57.83;100106.63;5033166;28;1423;-60
2021/05/18 12:35:18;;;;;;;;;;;;;;;20.12;59.88;100104.44;5024636;28;1898;-60
2021/05/18 12:37:47;;;;;;;;;;;;;;;20.11;60.52;100127.72;5032075;28;1038;-61
2021/05/18 12:40:15;;;;;;;;;;;;;;;20.15;59.58;100109.47;5033348;28;1474;-60
2021/05/18 12:42:42;;;;;;;;;;;;;;;20.11;59.39;100098.19;5035383;28;1097;-60
2021/05/18 12:45:10;;;;;;;;;;;;;;;20.12;60.07;100102.59;5029604;28;1419;-61
2021/05/18 12:47:37;;;;;;;;;;;;;;;20.17;60.32;100107.47;5030389;28;1585;-60
2021/05/18 12:50:05;;;;;;;;;;;;;;;20.08;59.40;100103.91;5031687;28;1348;-61
2021/05/18 12:52:35;;;;;;;;;;;;;;;20.06;59.81;100112.09;5029857;28;1392;-64
2021/05/18 12:55:11;;;;;;;;;;;;;;;20.12;59.77;100115.16;5030046;28;1906;-61
2021/05/18 12:57:48;;;;;;;;;;;;;;;20.15;60.23;100107.63;5032508;28;1596;-61
2021/05/18 13:00:14;;;;;;;;;;;;;;;20.13;60.60;100109.63;5031973;28;1444;-59
2021/05/18 13:02:42;;;;;;;;;;;;;;;20.11;60.53;100129.56;5027366;28;1439;-65
2021/05/18 13:05:12;;;;;;;;;;;;;;;20.09;59.76;100099.38;5030686;28;1498;-60
2021/05/18 13:07:39;;;;;;;;;;;;;;;20.10;59.53;100123.38;5041495;28;1460;-60
2021/05/18 13:10:12;;;;;;;;;;;;;;;20.05;59.88;100104.22;5033298;28;1323;-60
2021/05/18 13:12:38;;;;;;;;;;;;;;;20.08;60.90;100106.59;5038550;28;1435;-60
2021/05/18 13:15:05;;;;;;;;;;;;;;;20.11;60.00;100092.84;5028312;28;1906;-59
2021/05/18 13:17:31;;;;;;;;;;;;;;;20.10;60.06;100104.59;5034707;28;1382;-59
2021/05/18 13:19:58;;;;;;;;;;;;;;;20.14;60.46;100105.94;5028130;28;1530;-65
2021/05/18 13:22:27;;;;;;;;;;;;;;;20.10;59.33;100104.59;5030907;28;1053;-68
2021/05/18 13:27:38;;;;;;;;;;;;;;;20.07;60.31;100107.56;5018787;28;1436;-60
2021/05/18 13:30:05;;;;;;;;;;;;;;;20.04;59.14;100102.53;5027763;28;1240;-60
2021/05/18 13:32:31;;;;;;;;;;;;;;;20.01;58.45;100097.47;5029885;28;1293;-60
2021/05/18 13:34:57;;;;;;;;;;;;;;;20.04;58.75;100105.22;5032524;28;1906;-60
2021/05/18 13:37:23;;;;;;;;;;;;;;;20.08;59.39;100114.63;5038738;28;1434;-60
2021/05/18 13:39:49;;;;;;;;;;;;;;;20.06;58.48;100096.00;5044461;28;1451;-62
2021/05/18 13:42:15;;;;;;;;;;;;;;;20.10;59.53;100107.28;5038070;28;1048;-61
2021/05/18 13:44:42;;;;;;;;;;;;;;;20.03;58.77;100116.94;5032146;28;1216;-61
2021/05/18 13:47:08;;;;;;;;;;;;;;;19.99;58.69;100094.94;5030290;28;1323;-61
2021/05/18 13:49:34;;;;;;;;;;;;;;;19.99;59.49;100096.78;5024022;28;1347;-62
2021/05/18 13:52:00;;;;;;;;;;;;;;;20.11;59.13;100111.63;5027956;28;1460;-60
2021/05/18 13:54:27;;;;;;;;;;;;;;;20.13;58.82;100116.84;5028879;28;1902;-67
2021/05/18 13:56:53;;;;;;;;;;;;;;;20.08;59.82;100105.75;5030216;28;1173;-60
2021/05/18 13:59:19;;;;;;;;;;;;;;;20.09;58.70;100083.25;5029685;28;1032;-67
2021/05/18 14:01:46;;;;;;;;;;;;;;;20.07;59.96;100086.09;5022554;28;1701;-68
2021/05/18 14:04:12;;;;;;;;;;;;;;;20.08;59.04;100092.34;5027684;28;1513;-62
2021/05/18 14:09:36;;;;;;;;;;;;;;;20.05;58.77;100093.47;5004904;28;1452;-60
2021/05/18 14:12:02;;;;;;;;;;;;;;;20.04;58.26;100105.22;5028866;28;1364;-60
2021/05/18 14:14:28;;;;;;;;;;;;;;;19.98;57.98;100093.28;5029283;28;1910;-72
2021/05/18 14:16:55;;;;;;;;;;;;;;;20.01;58.04;100105.53;5029681;28;1388;-72
2021/05/18 14:19:22;;;;;;;;;;;;;;;19.98;58.23;100105.84;5029463;28;1400;-61
2021/05/18 14:21:49;;;;;;;;;;;;;;;20.04;58.93;100108.75;5027562;28;1434;-59
2021/05/18 14:24:20;;;;;;;;;;;;;;;20.00;57.62;100101.19;5029882;28;1626;-67
2021/05/18 14:26:46;;;;;;;;;;;;;;;19.95;56.23;100103.47;5038561;28;1194;-70
2021/05/18 14:29:12;;;;;;;;;;;;;;;19.89;56.24;100098.75;5038482;28;1578;-72
2021/05/18 14:31:38;;;;;;;;;;;;;;;19.89;54.91;100109.47;5026835;28;1572;-68
2021/05/18 14:34:06;;;;;;;;;;;;;;;19.91;55.18;100110.16;5028014;28;1902;-67
2021/05/18 14:36:32;;;;;;;;;;;;;;;19.99;56.71;100115.56;5021002;28;1603;-66
2021/05/18 14:39:00;;;;;;;;;;;;;;;20.01;55.72;100106.34;5042130;28;1028;-60
2021/05/18 14:44:09;;;;;;;;;;;;;;;20.07;54.83;100102.22;5040345;28;1416;-64
2021/05/18 14:46:42;;;;;;;;;;;;;;;20.11;54.31;100114.31;5028956;28;1396;-61
2021/05/18 14:57:18;;;;;;;;;;;;;;;19.97;53.63;100120.25;5019564;28;1258;-62
2021/05/18 14:59:44;;;;;;;;;;;;;;;20.04;55.20;100107.91;5022754;28;1505;-62
2021/05/18 15:02:10;;;;;;;;;;;;;;;19.97;54.60;100112.22;5022426;28;1321;-69
2021/05/18 15:04:37;;;;;;;;;;;;;;;20.02;54.48;100099.19;5028418;28;1077;-70
2021/05/18 15:07:06;;;;;;;;;;;;;;;19.98;54.82;100100.50;5026665;28;1572;-69
2021/05/18 15:09:32;;;;;;;;;;;;;;;19.93;55.39;100108.16;5031792;28;1479;-62
2021/05/18 15:11:58;;;;;;;;;;;;;;;19.95;55.78;100108.84;5026813;28;1112;-61
2021/05/18 15:14:24;;;;;;;;;;;;;;;20.02;55.73;100117.97;5030265;28;1910;-60
2021/05/18 15:16:50;;;;;;;;;;;;;;;20.01;56.20;100121.63;5030806;28;1123;-61
2021/05/18 15:19:18;;;;;;;;;;;;;;;19.94;56.01;100117.91;5025495;28;1706;-62
2021/05/18 15:21:45;;;;;;;;;;;;;;;19.95;56.26;100133.00;5023155;28;1356;-63
2021/05/18 15:24:11;;;;;;;;;;;;;;;19.95;56.56;100130.31;5027041;28;1240;-64
2021/05/18 15:26:38;;;;;;;;;;;;;;;19.89;56.11;100121.03;5028162;28;1045;-64
2021/05/18 15:29:04;;;;;;;;;;;;;;;19.90;57.12;100121.91;5026512;28;1569;-63
2021/05/18 15:31:31;;;;;;;;;;;;;;;19.94;56.46;100134.00;5026263;28;1537;-62
2021/05/18 15:33:58;;;;;;;;;;;;;;;19.88;55.21;100130.09;5027099;28;1918;-60
2021/05/18 15:36:24;;;;;;;;;;;;;;;19.94;57.11;100132.16;5021777;28;1606;-62
2021/05/18 15:38:53;;;;;;;;;;;;;;;19.89;55.76;100130.94;5021644;28;1003;-65
2021/05/18 15:41:19;;;;;;;;;;;;;;;19.85;55.63;100133.09;5024177;28;1400;-65
2021/05/18 15:43:45;;;;;;;;;;;;;;;19.84;56.41;100145.66;5015266;28;1725;-63
2021/05/18 15:46:12;;;;;;;;;;;;;;;19.80;56.91;100141.63;5023177;28;1519;-63
2021/05/18 15:48:39;;;;;;;;;;;;;;;19.82;56.08;100150.34;5029175;28;1499;-63
2021/05/18 15:51:05;;;;;;;;;;;;;;;19.90;57.79;100143.38;5026162;28;1745;-68
2021/05/18 15:53:31;;;;;;;;;;;;;;;19.95;57.47;100152.63;5026933;28;1565;-61
2021/05/18 15:55:58;;;;;;;;;;;;;;;19.96;57.07;100169.59;5029913;28;1973;-61
2021/05/18 15:58:24;;;;;;;;;;;;;;;19.88;56.59;100153.44;5026667;28;1412;-62
2021/05/18 16:00:51;;;;;;;;;;;;;;;19.82;56.20;100158.41;5024151;28;1566;-61
2021/05/18 16:03:18;;;;;;;;;;;;;;;19.81;56.86;100155.88;5024902;28;1463;-68
2021/05/18 16:05:44;;;;;;;;;;;;;;;19.80;56.45;100162.25;5021073;28;1811;-63
2021/05/18 16:08:58;;;;;;;;;;;;;;;19.82;57.09;100152.19;5033212;28;1562;-68
2021/05/18 16:10:57;;;;;;;;;;;;;;;19.83;57.38;100167.28;5031286;28;1677;-68
2021/05/18 16:13:24;;;;;;;;;;;;;;;19.86;56.87;100157.09;5030972;28;1554;-68
2021/05/18 16:15:50;;;;;;;;;;;;;;;19.89;57.33;100163.97;5034305;28;1984;-62
2021/05/18 16:18:17;;;;;;;;;;;;;;;19.92;57.80;100169.03;5031163;28;1764;-71
2021/05/18 16:20:43;;;;;;;;;;;;;;;19.94;57.61;100155.47;5034265;28;1336;-60
2021/05/18 16:23:09;;;;;;;;;;;;;;;19.92;57.17;100146.75;5031987;28;1450;-65
2021/05/18 16:25:35;;;;;;;;;;;;;;;19.97;58.02;100155.16;5031008;28;1336;-65
2021/05/18 16:28:01;;;;;;;;;;;;;;;19.99;57.73;100147.78;5033663;28;1210;-64
2021/05/18 16:30:28;;;;;;;;;;;;;;;20.02;57.70;100177.84;5032490;28;1317;-69
2021/05/18 16:32:54;;;;;;;;;;;;;;;20.01;58.04;100167.25;5030262;28;1372;-68
2021/05/18 16:35:20;;;;;;;;;;;;;;;20.08;57.62;100165.63;5034361;28;1902;-66
2021/05/18 16:37:46;;;;;;;;;;;;;;;20.06;57.45;100163.09;5035969;28;1218;-67
2021/05/18 16:40:14;;;;;;;;;;;;;;;19.99;58.28;100169.25;5032698;28;1451;-66
2021/05/18 16:42:40;;;;;;;;;;;;;;;19.94;57.74;100168.91;5031983;28;1355;-64
2021/05/18 16:45:08;;;;;;;;;;;;;;;19.91;57.57;100161.16;5034073;28;1206;-62
2021/05/18 16:47:35;;;;;;;;;;;;;;;19.91;58.48;100175.41;5031973;28;1284;-62
2021/05/18 16:50:01;;;;;;;;;;;;;;;19.92;57.87;100181.63;5030576;28;1697;-66
2021/05/18 16:52:27;;;;;;;;;;;;;;;19.94;58.96;100169.72;5033598;28;1486;-66
2021/05/18 16:54:53;;;;;;;;;;;;;;;19.94;57.47;100168.91;5033273;28;1906;-64
2021/05/18 16:57:19;;;;;;;;;;;;;;;19.88;58.21;100180.25;5033573;28;1415;-64
2021/05/18 16:59:46;;;;;;;;;;;;;;;19.82;57.54;100179.03;5033383;28;1396;-63
2021/05/18 17:02:12;;;;;;;;;;;;;;;19.82;58.25;100171.81;5033287;28;1388;-63
2021/05/18 17:04:39;;;;;;;;;;;;;;;19.77;58.64;100152.66;5034957;28;1115;-63
2021/05/18 17:07:06;;;;;;;;;;;;;;;19.77;57.76;100179.47;5033529;28;1398;-63
2021/05/18 17:09:32;;;;;;;;;;;;;;;19.75;58.22;100173.44;5029828;28;1271;-64
2021/05/18 17:11:59;;;;;;;;;;;;;;;19.76;57.92;100172.44;5028789;28;1534;-63
2021/05/18 17:14:25;;;;;;;;;;;;;;;19.76;58.15;100177.81;5025491;28;1979;-66
2021/05/18 17:16:51;;;;;;;;;;;;;;;19.75;58.37;100181.47;5030074;28;1385;-65
2021/05/18 17:19:17;;;;;;;;;;;;;;;19.72;57.96;100184.47;5031208;28;1367;-66
2021/05/18 17:21:44;;;;;;;;;;;;;;;19.80;58.67;100197.97;5030551;28;1304;-67
2021/05/18 17:24:10;;;;;;;;;;;;;;;19.91;59.61;100187.97;5031145;28;1273;-66